createdAt,value
2024-01-08T00:01:51.750Z,-0.30
2024-01-08T00:04:19.964Z,-0.20
2024-01-08T00:06:48.063Z,-0.20
2024-01-08T00:09:15.916Z,-0.20
2024-01-08T00:11:45.074Z,-0.20
2024-01-08T00:14:12.899Z,-0.20
2024-01-08T00:16:40.689Z,-0.20
2024-01-08T00:19:08.600Z,-0.20
2024-01-08T00:21:36.457Z,-0.20
2024-01-08T00:24:04.439Z,-0.30
2024-01-08T00:26:32.879Z,-0.30
2024-01-08T00:29:03.130Z,-0.30
2024-01-08T00:31:31.035Z,-0.40
2024-01-08T00:33:58.904Z,-0.40
2024-01-08T00:36:26.749Z,-0.40
2024-01-08T00:38:55.078Z,-0.40
2024-01-08T00:41:22.989Z,-0.50
2024-01-08T00:43:52.555Z,-0.50
2024-01-08T00:46:22.173Z,-0.50
2024-01-08T00:48:50.060Z,-0.50
2024-01-08T00:51:17.973Z,-0.50
2024-01-08T00:53:45.834Z,-0.50
2024-01-08T00:56:15.216Z,-0.60
2024-01-08T00:58:44.233Z,-0.70
2024-01-08T01:01:12.740Z,-0.80
2024-01-08T01:03:42.132Z,-0.80
2024-01-08T01:06:10.258Z,-0.90
2024-01-08T01:08:38.428Z,-1.00
2024-01-08T01:11:07.430Z,-1.00
2024-01-08T01:13:35.588Z,-1.10
2024-01-08T01:16:03.456Z,-1.20
2024-01-08T01:18:31.360Z,-1.30
2024-01-08T01:21:00.893Z,-1.40
2024-01-08T01:23:29.419Z,-1.30
2024-01-08T01:25:57.515Z,-1.30
2024-01-08T01:28:25.451Z,-1.40
2024-01-08T01:30:53.312Z,-1.30
2024-01-08T01:33:21.270Z,-1.30
2024-01-08T01:35:49.143Z,-1.30
2024-01-08T01:38:18.284Z,-1.30
2024-01-08T01:40:47.438Z,-1.30
2024-01-08T01:43:22.793Z,-1.20
2024-01-08T01:45:51.195Z,-1.30
2024-01-08T01:48:20.068Z,-1.30
2024-01-08T01:50:48.330Z,-1.40
2024-01-08T01:53:17.729Z,-1.50
2024-01-08T01:55:45.869Z,-1.50
2024-01-08T01:58:15.975Z,-1.50
2024-01-08T02:00:44.626Z,-1.50
2024-01-08T02:03:13.363Z,-1.60
2024-01-08T02:05:41.471Z,-1.60
2024-01-08T02:08:10.138Z,-1.70
2024-01-08T02:10:41.335Z,-1.70
2024-01-08T02:13:09.506Z,-1.70
2024-01-08T02:15:37.427Z,-1.80
2024-01-08T02:18:05.955Z,-1.90
2024-01-08T02:20:34.066Z,-2.00
2024-01-08T02:23:03.516Z,-2.10
2024-01-08T02:25:32.370Z,-2.20
2024-01-08T02:28:00.258Z,-2.30
2024-01-08T02:30:28.085Z,-2.30
2024-01-08T02:32:56.005Z,-2.40
2024-01-08T02:35:24.059Z,-2.50
2024-01-08T02:37:51.957Z,-2.50
2024-01-08T02:40:20.235Z,-2.50
2024-01-08T02:42:48.040Z,-2.60
2024-01-08T02:45:15.916Z,-2.80
2024-01-08T02:47:43.783Z,-3.00
2024-01-08T02:50:12.358Z,-3.10
2024-01-08T02:52:40.283Z,-3.20
2024-01-08T02:55:08.823Z,-3.30
2024-01-08T02:57:38.143Z,-3.30
2024-01-08T03:00:07.791Z,-3.30
2024-01-08T03:02:35.789Z,-3.20
2024-01-08T03:05:03.998Z,-3.20
2024-01-08T03:07:31.931Z,-3.20
2024-01-08T03:10:00.924Z,-3.20
2024-01-08T03:12:29.141Z,-3.20
2024-01-08T03:14:58.964Z,-3.20
2024-01-08T03:17:26.992Z,-3.30
2024-01-08T03:19:54.911Z,-3.40
2024-01-08T03:22:22.729Z,-3.50
2024-01-08T03:24:50.617Z,-3.60
2024-01-08T03:27:18.423Z,-3.60
2024-01-08T03:29:46.236Z,-3.70
2024-01-08T03:32:15.411Z,-3.70
2024-01-08T03:34:43.957Z,-3.70
2024-01-08T03:37:11.901Z,-3.80
2024-01-08T03:39:39.854Z,-3.80
2024-01-08T03:42:07.833Z,-3.90
2024-01-08T03:44:35.732Z,-3.90
2024-01-08T03:47:03.729Z,-4.00
2024-01-08T03:49:32.938Z,-4.10
2024-01-08T03:52:01.089Z,-4.20
2024-01-08T03:54:28.898Z,-4.30
2024-01-08T03:56:56.710Z,-4.40
2024-01-08T03:59:24.567Z,-4.40
2024-01-08T04:01:53.490Z,-4.50
2024-01-08T04:04:22.392Z,-4.60
2024-01-08T04:06:51.591Z,-4.60
2024-01-08T04:09:19.423Z,-4.70
2024-01-08T04:11:47.265Z,-4.80
2024-01-08T04:14:15.270Z,-4.80
2024-01-08T04:16:43.189Z,-4.90
2024-01-08T04:19:11.213Z,-4.90
2024-01-08T04:21:39.105Z,-4.90
2024-01-08T04:24:08.486Z,-4.90
2024-01-08T04:26:36.627Z,-4.90
2024-01-08T04:29:04.534Z,-4.90
2024-01-08T04:31:32.647Z,-4.90
2024-01-08T04:34:00.677Z,-4.80
2024-01-08T04:36:28.592Z,-4.70
2024-01-08T04:38:56.401Z,-4.70
2024-01-08T04:41:25.596Z,-4.70
2024-01-08T04:43:53.480Z,-4.70
2024-01-08T04:46:21.321Z,-4.70
2024-01-08T04:48:49.209Z,-4.70
2024-01-08T04:51:23.936Z,-4.60
2024-01-08T04:53:51.963Z,-4.60
2024-01-08T04:56:24.342Z,-4.60
2024-01-08T04:58:54.677Z,-4.60
2024-01-08T05:01:23.285Z,-4.60
2024-01-08T05:03:51.546Z,-4.50
2024-01-08T05:06:20.416Z,-4.50
2024-01-08T05:08:48.492Z,-4.40
2024-01-08T05:11:16.451Z,-4.50
2024-01-08T05:13:44.394Z,-4.40
2024-01-08T05:16:13.620Z,-4.40
2024-01-08T05:18:41.648Z,-4.40
2024-01-08T05:21:09.895Z,-4.40
2024-01-08T05:23:37.898Z,-4.30
2024-01-08T05:26:05.907Z,-4.40
2024-01-08T05:28:33.866Z,-4.40
2024-01-08T05:31:01.733Z,-4.40
2024-01-08T05:33:31.129Z,-4.40
2024-01-08T05:35:59.090Z,-4.60
2024-01-08T05:38:27.030Z,-4.60
2024-01-08T05:40:56.771Z,-4.70
2024-01-08T05:43:25.023Z,-4.60
2024-01-08T05:45:53.436Z,-4.60
2024-01-08T05:48:21.335Z,-4.60
2024-01-08T05:50:50.540Z,-4.50
2024-01-08T05:53:18.393Z,-4.50
2024-01-08T05:55:46.502Z,-4.50
2024-01-08T05:58:14.664Z,-4.50
2024-01-08T06:00:42.605Z,-4.60
2024-01-08T06:03:10.487Z,-4.60
2024-01-08T06:05:38.444Z,-4.70
2024-01-08T06:08:09.920Z,-4.70
2024-01-08T06:10:39.266Z,-4.80
2024-01-08T06:13:07.681Z,-4.80
2024-01-08T06:15:35.828Z,-4.90
2024-01-08T06:18:05.604Z,-4.80
2024-01-08T06:20:34.854Z,-4.90
2024-01-08T06:23:03.244Z,-4.90
2024-01-08T06:25:32.475Z,-4.80
2024-01-08T06:28:00.409Z,-4.80
2024-01-08T06:30:28.274Z,-4.90
2024-01-08T06:32:56.249Z,-5.00
2024-01-08T06:35:25.050Z,-5.10
2024-01-08T06:37:53.049Z,-5.10
2024-01-08T06:40:21.841Z,-5.00
2024-01-08T06:43:00.490Z,-5.10
2024-01-08T06:45:29.825Z,-5.20
2024-01-08T06:47:57.818Z,-5.10
2024-01-08T06:50:26.217Z,-5.20
2024-01-08T06:52:54.161Z,-5.20
2024-01-08T06:55:21.988Z,-5.20
2024-01-08T06:57:53.709Z,-5.30
2024-01-08T07:00:22.055Z,-5.30
2024-01-08T07:02:52.201Z,-5.30
2024-01-08T07:05:20.920Z,-5.30
2024-01-08T07:07:48.879Z,-5.30
2024-01-08T07:10:16.818Z,-5.30
2024-01-08T07:12:44.597Z,-5.30
2024-01-08T07:15:37.988Z,-5.20
2024-01-08T07:18:06.921Z,-5.30
2024-01-08T07:20:34.904Z,-5.30
2024-01-08T07:23:03.409Z,-5.20
2024-01-08T07:25:33.738Z,-5.20
2024-01-08T07:28:02.318Z,-5.20
2024-01-08T07:30:31.588Z,-5.20
2024-01-08T07:32:59.743Z,-5.20
2024-01-08T07:35:27.753Z,-5.20
2024-01-08T07:37:57.178Z,-5.20
2024-01-08T07:40:26.145Z,-5.20
2024-01-08T07:42:55.097Z,-5.20
2024-01-08T07:45:24.938Z,-5.20
2024-01-08T07:47:54.546Z,-5.30
2024-01-08T07:50:22.590Z,-5.30
2024-01-08T07:52:50.506Z,-5.30
2024-01-08T07:55:18.532Z,-5.30
2024-01-08T07:57:46.377Z,-5.40
2024-01-08T08:00:15.142Z,-5.50
2024-01-08T08:02:43.839Z,-5.40
2024-01-08T08:05:13.249Z,-5.30
2024-01-08T08:07:41.454Z,-5.30
2024-01-08T08:10:11.403Z,-5.30
2024-01-08T08:12:39.645Z,-5.30
2024-01-08T08:15:08.312Z,-5.20
2024-01-08T08:17:36.255Z,-5.20
2024-01-08T08:20:06.800Z,-5.10
2024-01-08T08:22:38.272Z,-5.00
2024-01-08T08:25:08.471Z,-5.00
2024-01-08T08:27:36.616Z,-4.90
2024-01-08T08:30:04.978Z,-4.90
2024-01-08T08:32:32.911Z,-4.90
2024-01-08T08:35:00.937Z,-4.90
2024-01-08T08:37:39.511Z,-4.80
2024-01-08T08:40:17.797Z,-4.80
2024-01-08T08:42:45.767Z,-4.80
2024-01-08T08:45:13.718Z,-4.80
2024-01-08T08:47:42.264Z,-4.80
2024-01-08T08:50:13.251Z,-4.90
2024-01-08T08:52:41.369Z,-5.00
2024-01-08T08:55:11.511Z,-5.10
2024-01-08T08:57:41.086Z,-5.10
2024-01-08T09:00:09.947Z,-5.00
2024-01-08T09:02:38.584Z,-5.10
2024-01-08T09:05:09.596Z,-5.10
2024-01-08T09:07:38.107Z,-5.10
2024-01-08T09:10:06.911Z,-5.10
2024-01-08T09:12:34.720Z,-5.00
2024-01-08T09:15:03.991Z,-5.00
2024-01-08T09:17:34.082Z,-4.90
2024-01-08T09:20:02.213Z,-4.90
2024-01-08T09:22:30.212Z,-4.70
2024-01-08T09:24:58.211Z,-4.70
2024-01-08T09:27:26.629Z,-4.50
2024-01-08T09:29:54.472Z,-4.50
2024-01-08T09:32:23.742Z,-4.40
2024-01-08T09:34:51.644Z,-4.40
2024-01-08T09:37:21.597Z,-4.40
2024-01-08T09:39:49.583Z,-4.30
2024-01-08T09:42:17.590Z,-4.20
2024-01-08T09:44:48.712Z,-4.10
2024-01-08T09:47:17.833Z,-4.00
2024-01-08T09:49:48.417Z,-3.90
2024-01-08T09:52:16.640Z,-3.90
2024-01-08T09:54:44.596Z,-3.90
2024-01-08T09:57:12.867Z,-3.90
2024-01-08T09:59:40.831Z,-4.00
2024-01-08T10:02:17.828Z,-4.10
2024-01-08T10:04:46.187Z,-4.20
2024-01-08T10:07:14.540Z,-4.20
2024-01-08T10:09:42.708Z,-4.10
2024-01-08T10:12:11.385Z,-4.00
2024-01-08T10:14:39.366Z,-4.00
2024-01-08T10:17:07.418Z,-4.00
2024-01-08T10:19:35.546Z,-3.90
2024-01-08T10:22:12.371Z,-3.90
2024-01-08T10:24:42.363Z,-3.80
2024-01-08T10:27:11.131Z,-3.70
2024-01-08T10:29:40.737Z,-3.60
2024-01-08T10:32:09.655Z,-3.60
2024-01-08T10:34:38.174Z,-3.70
2024-01-08T10:37:06.118Z,-3.70
2024-01-08T10:39:47.207Z,-3.70
2024-01-08T10:42:19.409Z,-3.70
2024-01-08T10:44:47.878Z,-3.70
2024-01-08T10:47:19.248Z,-3.70
2024-01-08T10:49:52.153Z,-3.80
2024-01-08T10:52:26.722Z,-3.90
2024-01-08T10:54:58.460Z,-4.30
2024-01-08T10:57:37.575Z,-4.30
2024-01-08T11:00:11.262Z,-4.20
2024-01-08T11:02:40.470Z,-4.10
2024-01-08T11:05:11.214Z,-4.00
2024-01-08T11:07:40.649Z,-3.90
2024-01-08T11:10:11.278Z,-3.80
2024-01-08T11:12:40.631Z,-3.80
2024-01-08T11:15:09.458Z,-3.70
2024-01-08T11:17:37.481Z,-3.80
2024-01-08T11:20:08.548Z,-3.80
2024-01-08T11:22:38.804Z,-3.90
2024-01-08T11:25:08.012Z,-4.00
2024-01-08T11:27:37.173Z,-4.10
2024-01-08T11:30:06.452Z,-4.20
2024-01-08T11:33:20.149Z,-4.20
2024-01-08T11:36:00.557Z,-4.20
2024-01-08T11:38:29.253Z,-4.20
2024-01-08T11:40:57.719Z,-4.10
2024-01-08T11:43:28.269Z,-4.00
2024-01-08T11:45:56.108Z,-4.00
2024-01-08T11:48:24.160Z,-4.00
2024-01-08T11:50:52.276Z,-4.10
2024-01-08T11:53:21.736Z,-4.10
2024-01-08T11:55:49.655Z,-4.10
2024-01-08T11:58:17.909Z,-4.00
2024-01-08T12:00:47.956Z,-4.00
2024-01-08T12:03:15.981Z,-4.00
2024-01-08T12:05:44.028Z,-4.10
2024-01-08T12:08:18.240Z,-4.10
2024-01-08T12:10:54.371Z,-4.00
2024-01-08T12:13:22.225Z,-4.00
2024-01-08T12:15:51.959Z,-4.00
2024-01-08T12:18:20.115Z,-4.00
2024-01-08T12:20:48.158Z,-4.10
2024-01-08T12:23:16.123Z,-4.10
2024-01-08T12:25:44.533Z,-4.10
2024-01-08T12:28:12.414Z,-4.20
2024-01-08T12:30:41.214Z,-4.20
2024-01-08T12:33:10.873Z,-4.10
2024-01-08T12:35:39.315Z,-4.20
2024-01-08T12:38:07.605Z,-4.30
2024-01-08T12:40:35.521Z,-4.30
2024-01-08T12:43:04.675Z,-4.30
2024-01-08T12:45:34.574Z,-4.30
2024-01-08T12:48:02.618Z,-4.20
2024-01-08T12:50:31.954Z,-4.20
2024-01-08T12:52:59.952Z,-4.30
2024-01-08T12:55:27.880Z,-4.30
2024-01-08T12:57:58.506Z,-4.40
2024-01-08T13:00:28.886Z,-4.30
2024-01-08T13:02:57.018Z,-4.20
2024-01-08T13:05:25.038Z,-4.20
2024-01-08T13:07:54.437Z,-4.20
2024-01-08T13:10:22.683Z,-4.20
2024-01-08T13:12:50.559Z,-4.10
2024-01-08T13:15:18.351Z,-4.00
2024-01-08T13:17:46.360Z,-4.00
2024-01-08T13:20:22.856Z,-4.20
2024-01-08T13:22:56.666Z,-4.20
2024-01-08T13:25:25.475Z,-4.10
2024-01-08T13:27:53.353Z,-4.10
2024-01-08T13:30:21.626Z,-4.00
2024-01-08T13:32:49.911Z,-4.00
2024-01-08T13:35:19.018Z,-4.10
2024-01-08T13:37:47.136Z,-4.20
2024-01-08T13:40:16.486Z,-4.30
2024-01-08T13:42:45.895Z,-4.30
2024-01-08T13:45:13.845Z,-4.40
2024-01-08T13:47:42.167Z,-4.40
2024-01-08T13:50:11.119Z,-4.40
2024-01-08T13:52:39.181Z,-4.50
2024-01-08T13:55:10.695Z,-4.50
2024-01-08T13:57:40.040Z,-4.60
2024-01-08T14:00:08.986Z,-4.50
2024-01-08T14:02:37.392Z,-4.50
2024-01-08T14:05:05.705Z,-4.50
2024-01-08T14:07:33.722Z,-4.50
2024-01-08T14:10:02.680Z,-4.60
2024-01-08T14:12:30.867Z,-4.60
2024-01-08T14:15:00.070Z,-4.60
2024-01-08T14:17:28.098Z,-4.60
2024-01-08T14:19:56.988Z,-4.70
2024-01-08T14:22:25.206Z,-4.70
2024-01-08T14:24:53.057Z,-4.60
2024-01-08T14:27:21.025Z,-4.70
2024-01-08T14:29:51.632Z,-4.70
2024-01-08T14:32:20.917Z,-4.70
2024-01-08T14:34:48.914Z,-4.80
2024-01-08T14:37:17.985Z,-4.80
2024-01-08T14:39:46.398Z,-4.90
2024-01-08T14:42:14.395Z,-5.00
2024-01-08T14:44:42.536Z,-5.10
2024-01-08T14:47:10.764Z,-5.20
2024-01-08T14:49:40.723Z,-5.20
2024-01-08T14:52:08.817Z,-5.30
2024-01-08T14:54:36.768Z,-5.20
2024-01-08T14:57:05.747Z,-5.30
2024-01-08T14:59:35.094Z,-5.30
2024-01-08T15:02:03.870Z,-5.30
2024-01-08T15:04:31.850Z,-5.40
2024-01-08T15:07:02.065Z,-5.40
2024-01-08T15:09:30.033Z,-5.40
2024-01-08T15:11:57.978Z,-5.50
2024-01-08T15:14:26.391Z,-5.60
2024-01-08T15:16:54.372Z,-5.70
2024-01-08T15:19:22.481Z,-5.70
2024-01-08T15:21:52.454Z,-5.70
2024-01-08T15:24:22.664Z,-5.80
2024-01-08T15:26:50.715Z,-5.80
2024-01-08T15:29:19.442Z,-5.90
2024-01-08T15:31:47.544Z,-5.90
2024-01-08T15:34:15.434Z,-5.90
2024-01-08T15:36:43.325Z,-5.90
2024-01-08T15:39:15.288Z,-6.00
2024-01-08T15:41:44.829Z,-6.00
2024-01-08T15:44:12.875Z,-6.10
2024-01-08T15:46:42.339Z,-6.10
2024-01-08T15:49:10.752Z,-6.20
2024-01-08T15:51:38.694Z,-6.20
2024-01-08T15:54:06.723Z,-6.20
2024-01-08T15:56:35.292Z,-6.20
2024-01-08T15:59:04.562Z,-6.20
2024-01-08T16:01:33.516Z,-6.30
2024-01-08T16:04:02.100Z,-6.30
2024-01-08T16:06:30.243Z,-6.30
2024-01-08T16:08:58.585Z,-6.20
2024-01-08T16:11:26.836Z,-6.30
2024-01-08T16:13:54.760Z,-6.30
2024-01-08T16:16:25.662Z,-6.30
2024-01-08T16:18:53.904Z,-6.30
2024-01-08T16:21:22.485Z,-6.30
2024-01-08T16:23:58.617Z,-6.30
2024-01-08T16:26:34.382Z,-6.30
2024-01-08T16:29:02.265Z,-6.30
2024-01-08T16:31:31.557Z,-6.30
2024-01-08T16:33:59.608Z,-6.40
2024-01-08T16:36:27.606Z,-6.40
2024-01-08T16:38:55.575Z,-6.40
2024-01-08T16:41:23.777Z,-6.40
2024-01-08T16:43:51.761Z,-6.40
2024-01-08T16:46:19.880Z,-6.50
2024-01-08T16:48:49.304Z,-6.50
2024-01-08T16:51:17.987Z,-6.50
2024-01-08T16:53:46.151Z,-6.50
2024-01-08T16:56:14.601Z,-6.50
2024-01-08T16:58:42.640Z,-6.50
2024-01-08T17:01:10.809Z,-6.50
2024-01-08T17:03:38.823Z,-6.40
2024-01-08T17:06:10.962Z,-6.50
2024-01-08T17:08:39.362Z,-6.60
2024-01-08T17:11:07.487Z,-6.60
2024-01-08T17:13:35.397Z,-6.60
2024-01-08T17:16:03.318Z,-6.60
2024-01-08T17:18:31.408Z,-6.60
2024-01-08T17:20:59.414Z,-6.70
2024-01-08T17:23:29.043Z,-6.70
2024-01-08T17:25:56.992Z,-6.70
2024-01-08T17:28:25.013Z,-6.70
2024-01-08T17:30:52.968Z,-6.80
2024-01-08T17:33:22.223Z,-6.80
2024-01-08T17:35:50.639Z,-6.80
2024-01-08T17:38:19.092Z,-6.90
2024-01-08T17:40:48.339Z,-6.80
2024-01-08T17:43:16.224Z,-6.80
2024-01-08T17:45:44.196Z,-6.80
2024-01-08T17:48:13.696Z,-6.80
2024-01-08T17:50:41.657Z,-6.90
2024-01-08T17:53:09.801Z,-6.80
2024-01-08T17:55:37.718Z,-6.80
2024-01-08T17:58:07.648Z,-6.70
2024-01-08T18:00:36.695Z,-6.70
2024-01-08T18:03:04.939Z,-6.70
2024-01-08T18:05:33.174Z,-6.70
2024-01-08T18:08:01.131Z,-6.70
2024-01-08T18:10:29.430Z,-6.80
2024-01-08T18:12:57.238Z,-6.90
2024-01-08T18:15:27.649Z,-6.90
2024-01-08T18:17:56.437Z,-6.90
2024-01-08T18:20:24.783Z,-7.00
2024-01-08T18:22:52.814Z,-7.00
2024-01-08T18:25:21.586Z,-7.00
2024-01-08T18:27:49.713Z,-7.00
2024-01-08T18:30:19.557Z,-7.00
2024-01-08T18:32:49.009Z,-7.10
2024-01-08T18:35:17.000Z,-7.10
2024-01-08T18:37:45.014Z,-7.10
2024-01-08T18:40:15.936Z,-7.10
2024-01-08T18:42:43.905Z,-7.20
2024-01-08T18:45:13.052Z,-7.20
2024-01-08T18:47:41.195Z,-7.30
2024-01-08T18:50:11.483Z,-7.30
2024-01-08T18:52:39.646Z,-7.30
2024-01-08T18:55:08.782Z,-7.40
2024-01-08T18:57:36.634Z,-7.40
2024-01-08T19:00:06.034Z,-7.40
2024-01-08T19:02:34.275Z,-7.50
2024-01-08T19:05:02.491Z,-7.50
2024-01-08T19:07:31.979Z,-7.50
2024-01-08T19:09:59.923Z,-7.50
2024-01-08T19:12:28.533Z,-7.60
2024-01-08T19:14:56.389Z,-7.60
2024-01-08T19:17:24.347Z,-7.60
2024-01-08T19:19:52.401Z,-7.70
2024-01-08T19:22:20.533Z,-7.70
2024-01-08T19:24:49.760Z,-7.70
2024-01-08T19:27:17.652Z,-7.70
2024-01-08T19:29:46.623Z,-7.70
2024-01-08T19:32:14.700Z,-7.80
2024-01-08T19:34:43.169Z,-7.80
2024-01-08T19:37:13.379Z,-7.80
2024-01-08T19:39:42.171Z,-7.90
2024-01-08T19:42:11.785Z,-7.90
2024-01-08T19:44:39.752Z,-7.90
2024-01-08T19:47:09.486Z,-7.90
2024-01-08T19:49:37.557Z,-8.00
2024-01-08T19:52:05.945Z,-8.00
2024-01-08T19:54:34.508Z,-8.00
2024-01-08T19:57:02.519Z,-8.10
2024-01-08T19:59:33.502Z,-8.10
2024-01-08T20:02:01.706Z,-8.10
2024-01-08T20:04:30.832Z,-8.10
2024-01-08T20:06:58.969Z,-8.20
2024-01-08T20:09:27.008Z,-8.20
2024-01-08T20:11:55.221Z,-8.20
2024-01-08T20:14:27.533Z,-8.20
2024-01-08T20:16:57.207Z,-8.30
2024-01-08T20:19:25.290Z,-8.30
2024-01-08T20:21:53.748Z,-8.30
2024-01-08T20:24:21.633Z,-8.30
2024-01-08T20:26:49.743Z,-8.30
2024-01-08T20:29:17.772Z,-8.40
2024-01-08T20:31:46.070Z,-8.40
2024-01-08T20:34:15.603Z,-8.40
2024-01-08T20:36:43.570Z,-8.40
2024-01-08T20:39:11.983Z,-8.40
2024-01-08T20:41:40.118Z,-8.40
2024-01-08T20:44:08.060Z,-8.50
2024-01-08T20:46:36.393Z,-8.50
2024-01-08T20:49:04.420Z,-8.50
2024-01-08T20:51:33.849Z,-8.50
2024-01-08T20:54:01.869Z,-8.50
2024-01-08T20:56:30.093Z,-8.50
2024-01-08T20:58:58.176Z,-8.60
2024-01-08T21:01:27.204Z,-8.60
2024-01-08T21:03:55.102Z,-8.60
2024-01-08T21:06:23.705Z,-8.60
2024-01-08T21:08:53.273Z,-8.60
2024-01-08T21:11:21.309Z,-8.70
2024-01-08T21:13:49.436Z,-8.70
2024-01-08T21:16:17.366Z,-8.70
2024-01-08T21:18:45.417Z,-8.70
2024-01-08T21:21:13.406Z,-8.70
2024-01-08T21:23:41.513Z,-8.70
2024-01-08T21:26:11.040Z,-8.80
2024-01-08T21:28:39.014Z,-8.80
2024-01-08T21:31:10.962Z,-8.80
2024-01-08T21:33:40.551Z,-8.80
2024-01-08T21:36:11.377Z,-8.80
2024-01-08T21:38:43.511Z,-8.80
2024-01-08T21:41:13.145Z,-8.80
2024-01-08T21:43:41.034Z,-8.80
2024-01-08T21:46:08.145Z,-8.80
2024-01-08T21:48:36.322Z,-8.90
2024-01-08T21:51:04.805Z,-8.90
2024-01-08T21:53:32.681Z,-8.90
2024-01-08T21:56:00.532Z,-8.90
2024-01-08T21:58:29.810Z,-8.90
2024-01-08T22:00:57.889Z,-8.90
2024-01-08T22:03:25.865Z,-8.90
2024-01-08T22:05:53.900Z,-8.90
2024-01-08T22:08:23.298Z,-8.90
2024-01-08T22:10:51.199Z,-8.90
2024-01-08T22:13:19.084Z,-8.90
2024-01-08T22:15:52.583Z,-8.90
2024-01-08T22:18:20.556Z,-9.00
2024-01-08T22:20:48.816Z,-9.00
2024-01-08T22:23:16.911Z,-9.00
2024-01-08T22:25:45.042Z,-9.00
2024-01-08T22:28:13.148Z,-9.00
2024-01-08T22:30:41.072Z,-9.00
2024-01-08T22:33:10.894Z,-9.00
2024-01-08T22:35:39.051Z,-9.00
2024-01-08T22:38:06.996Z,-9.00
2024-01-08T22:40:34.945Z,-9.10
2024-01-08T22:43:02.837Z,-9.10
2024-01-08T22:45:30.739Z,-9.10
2024-01-08T22:47:58.708Z,-9.10
2024-01-08T22:50:27.980Z,-9.10
2024-01-08T22:52:54.878Z,-9.10
2024-01-08T22:55:22.980Z,-9.10
2024-01-08T22:57:50.845Z,-9.10
2024-01-08T23:00:19.775Z,-9.20
2024-01-08T23:02:47.751Z,-9.20
2024-01-08T23:05:15.732Z,-9.20
2024-01-08T23:07:45.202Z,-9.20
2024-01-08T23:10:13.108Z,-9.20
2024-01-08T23:12:41.024Z,-9.20
2024-01-08T23:15:09.942Z,-9.30
2024-01-08T23:17:38.497Z,-9.30
2024-01-08T23:20:09.282Z,-9.30
2024-01-08T23:22:37.237Z,-9.30
2024-01-08T23:25:07.386Z,-9.30
2024-01-08T23:27:35.319Z,-9.30
2024-01-08T23:30:04.858Z,-9.30
2024-01-08T23:32:33.151Z,-9.30
2024-01-08T23:35:01.508Z,-9.30
2024-01-08T23:37:29.444Z,-9.30
2024-01-08T23:39:57.441Z,-9.30
2024-01-08T23:42:26.612Z,-9.30
2024-01-08T23:44:54.696Z,-9.30
2024-01-08T23:47:23.766Z,-9.40
2024-01-08T23:49:51.844Z,-9.30
2024-01-08T23:52:19.777Z,-9.30
2024-01-08T23:54:47.650Z,-9.30
2024-01-08T23:57:15.480Z,-9.40
2024-01-08T23:59:44.819Z,-9.30
